createdAt,value
2019-03-10T00:00:22.533Z,949.36
2019-03-10T00:01:22.529Z,949.31
2019-03-10T00:02:43.530Z,949.27
2019-03-10T00:03:22.522Z,949.30
2019-03-10T00:04:22.487Z,949.32
2019-03-10T00:05:22.495Z,949.27
2019-03-10T00:06:22.482Z,949.27
2019-03-10T00:07:23.182Z,949.27
2019-03-10T00:08:43.479Z,949.28
2019-03-10T00:09:22.463Z,949.30
2019-03-10T00:10:22.532Z,949.30
2019-03-10T00:11:22.446Z,949.20
2019-03-10T00:12:22.445Z,949.18
2019-03-10T00:13:23.307Z,949.15
2019-03-10T00:14:43.440Z,949.21
2019-03-10T00:15:22.419Z,949.23
2019-03-10T00:16:22.419Z,949.24
2019-03-10T00:17:22.410Z,949.28
2019-03-10T00:18:22.394Z,949.21
2019-03-10T00:19:22.392Z,949.18
2019-03-10T00:20:43.387Z,949.15
2019-03-10T00:21:22.402Z,949.09
2019-03-10T00:22:22.377Z,949.14
2019-03-10T00:23:22.362Z,949.10
2019-03-10T00:24:22.356Z,949.07
2019-03-10T00:25:22.355Z,949.09
2019-03-10T00:26:43.353Z,949.08
2019-03-10T00:27:22.343Z,949.04
2019-03-10T00:28:22.331Z,949.06
2019-03-10T00:29:22.325Z,949.06
2019-03-10T00:30:22.319Z,949.05
2019-03-10T00:31:22.309Z,949.07
2019-03-10T00:32:43.314Z,949.06
2019-03-10T00:33:22.291Z,949.00
2019-03-10T00:34:22.279Z,949.06
2019-03-10T00:35:22.284Z,949.06
2019-03-10T00:36:22.267Z,949.06
2019-03-10T00:37:22.273Z,949.01
2019-03-10T00:38:43.265Z,948.95
2019-03-10T00:39:22.251Z,949.00
2019-03-10T00:40:22.253Z,948.98
2019-03-10T00:41:22.241Z,948.95
2019-03-10T00:42:22.236Z,948.94
2019-03-10T00:43:22.226Z,948.97
2019-03-10T00:44:43.220Z,948.97
2019-03-10T00:45:22.217Z,948.97
2019-03-10T00:46:22.313Z,948.97
2019-03-10T00:47:22.190Z,948.92
2019-03-10T00:48:22.191Z,948.95
2019-03-10T00:49:22.185Z,948.92
2019-03-10T00:50:43.174Z,948.87
2019-03-10T00:51:22.169Z,948.87
2019-03-10T00:52:22.162Z,948.80
2019-03-10T00:53:22.151Z,948.80
2019-03-10T00:54:22.141Z,948.77
2019-03-10T00:55:22.138Z,948.78
2019-03-10T00:56:43.137Z,948.81
2019-03-10T00:57:22.282Z,948.78
2019-03-10T00:58:22.114Z,948.82
2019-03-10T00:59:22.109Z,948.80
2019-03-10T01:00:22.097Z,948.82
2019-03-10T01:01:22.642Z,948.75
2019-03-10T01:02:43.094Z,948.72
2019-03-10T01:03:22.383Z,948.66
2019-03-10T01:04:22.086Z,948.67
2019-03-10T01:05:22.062Z,948.67
2019-03-10T01:06:22.057Z,948.57
2019-03-10T01:07:22.057Z,948.51
2019-03-10T01:08:43.057Z,948.55
2019-03-10T01:09:22.054Z,948.57
2019-03-10T01:10:22.032Z,948.52
2019-03-10T01:11:22.031Z,948.51
2019-03-10T01:12:22.017Z,948.42
2019-03-10T01:13:22.011Z,948.46
2019-03-10T01:14:43.016Z,948.48
2019-03-10T01:15:21.997Z,948.37
2019-03-10T01:16:21.999Z,948.36
2019-03-10T01:17:21.983Z,948.42
2019-03-10T01:18:21.974Z,948.40
2019-03-10T01:19:21.977Z,948.40
2019-03-10T01:20:42.979Z,948.34
2019-03-10T01:21:21.950Z,948.34
2019-03-10T01:22:21.944Z,948.32
2019-03-10T01:23:21.937Z,948.28
2019-03-10T01:24:21.940Z,948.24
2019-03-10T01:25:21.920Z,948.19
2019-03-10T01:26:42.927Z,948.17
2019-03-10T01:27:21.912Z,948.14
2019-03-10T01:28:21.913Z,948.10
2019-03-10T01:29:21.897Z,948.01
2019-03-10T01:30:21.893Z,947.98
2019-03-10T01:31:21.884Z,947.91
2019-03-10T01:32:42.886Z,947.95
2019-03-10T01:33:21.863Z,947.87
2019-03-10T01:34:21.862Z,947.85
2019-03-10T01:35:21.863Z,947.84
2019-03-10T01:36:21.850Z,947.81
2019-03-10T01:37:21.846Z,947.79
2019-03-10T01:38:42.852Z,947.86
2019-03-10T01:39:21.826Z,947.83
2019-03-10T01:40:21.829Z,947.79
2019-03-10T01:41:21.818Z,947.73
2019-03-10T01:42:21.805Z,947.66
2019-03-10T01:43:21.797Z,947.65
2019-03-10T01:44:42.799Z,947.58
2019-03-10T01:45:21.783Z,947.57
2019-03-10T01:46:21.777Z,947.58
2019-03-10T01:47:21.783Z,947.55
2019-03-10T01:48:21.770Z,947.54
2019-03-10T01:49:21.749Z,947.52
2019-03-10T01:50:42.757Z,947.52
2019-03-10T01:51:21.743Z,947.52
2019-03-10T01:52:21.737Z,947.42
2019-03-10T01:53:25.420Z,947.46
2019-03-10T01:54:21.768Z,947.39
2019-03-10T01:55:21.725Z,947.28
2019-03-10T01:56:42.724Z,947.16
2019-03-10T01:57:21.703Z,947.13
2019-03-10T01:58:21.695Z,947.13
2019-03-10T01:59:21.687Z,947.14
2019-03-10T02:00:21.676Z,947.15
2019-03-10T02:01:21.673Z,947.09
2019-03-10T02:02:42.682Z,947.09
2019-03-10T02:03:21.664Z,947.09
2019-03-10T02:04:21.656Z,947.08
2019-03-10T02:05:21.651Z,946.99
2019-03-10T02:06:21.644Z,946.97
2019-03-10T02:07:21.637Z,946.99
2019-03-10T02:08:42.636Z,946.98
2019-03-10T02:09:21.627Z,946.97
2019-03-10T02:10:21.617Z,946.92
2019-03-10T02:11:21.617Z,946.91
2019-03-10T02:12:21.601Z,946.90
2019-03-10T02:13:21.595Z,946.93
2019-03-10T02:14:42.599Z,946.91
2019-03-10T02:15:21.587Z,946.94
2019-03-10T02:16:21.574Z,946.93
2019-03-10T02:17:21.568Z,946.90
2019-03-10T02:18:21.557Z,946.88
2019-03-10T02:19:21.557Z,946.85
2019-03-10T02:20:42.552Z,946.85
2019-03-10T02:21:21.541Z,946.78
2019-03-10T02:22:21.530Z,946.75
2019-03-10T02:23:21.518Z,946.72
2019-03-10T02:24:24.113Z,946.67
2019-03-10T02:25:21.509Z,946.64
2019-03-10T02:26:42.500Z,946.57
2019-03-10T02:27:21.508Z,946.60
2019-03-10T02:28:21.496Z,946.53
2019-03-10T02:29:21.487Z,946.53
2019-03-10T02:30:21.469Z,946.50
2019-03-10T02:31:21.478Z,946.49
2019-03-10T02:32:42.513Z,946.46
2019-03-10T02:33:21.455Z,946.41
2019-03-10T02:34:21.456Z,946.46
2019-03-10T02:35:21.452Z,946.42
2019-03-10T02:36:21.447Z,946.39
2019-03-10T02:37:21.436Z,946.42
2019-03-10T02:38:42.435Z,946.38
2019-03-10T02:39:21.432Z,946.39
2019-03-10T02:40:21.411Z,946.36
2019-03-10T02:41:21.402Z,946.34
2019-03-10T02:42:21.399Z,946.33
2019-03-10T02:43:22.092Z,946.25
2019-03-10T02:44:42.391Z,946.28
2019-03-10T02:45:21.381Z,946.19
2019-03-10T02:46:21.358Z,946.22
2019-03-10T02:47:21.365Z,946.16
2019-03-10T02:48:21.360Z,946.15
2019-03-10T02:49:21.353Z,946.07
2019-03-10T02:50:42.356Z,946.04
2019-03-10T02:51:21.335Z,945.96
2019-03-10T02:52:21.336Z,945.96
2019-03-10T02:53:21.318Z,945.93
2019-03-10T02:54:21.321Z,945.86
2019-03-10T02:55:21.313Z,945.85
2019-03-10T02:56:42.319Z,945.82
2019-03-10T02:57:21.302Z,945.77
2019-03-10T02:58:21.290Z,945.82
2019-03-10T02:59:21.284Z,945.81
2019-03-10T03:00:21.276Z,945.73
2019-03-10T03:01:21.271Z,945.71
2019-03-10T03:02:42.279Z,945.77
2019-03-10T03:03:21.251Z,945.77
2019-03-10T03:04:21.256Z,945.75
2019-03-10T03:05:21.249Z,945.78
2019-03-10T03:06:21.245Z,945.74
2019-03-10T03:07:21.229Z,945.72
2019-03-10T03:08:42.229Z,945.68
2019-03-10T03:09:21.212Z,945.65
2019-03-10T03:10:21.214Z,945.68
2019-03-10T03:11:21.203Z,945.69
2019-03-10T03:12:21.187Z,945.66
2019-03-10T03:13:21.192Z,945.62
2019-03-10T03:14:42.200Z,945.63
2019-03-10T03:15:21.185Z,945.61
2019-03-10T03:16:21.180Z,945.57
2019-03-10T03:17:21.161Z,945.52
2019-03-10T03:18:21.150Z,945.49
2019-03-10T03:19:21.141Z,945.47
2019-03-10T03:20:42.152Z,945.43
2019-03-10T03:21:21.124Z,945.43
2019-03-10T03:22:21.117Z,945.44
2019-03-10T03:23:21.127Z,945.40
2019-03-10T03:24:21.114Z,945.42
2019-03-10T03:25:21.111Z,945.40
2019-03-10T03:26:42.096Z,945.35
2019-03-10T03:27:21.090Z,945.35
2019-03-10T03:28:21.079Z,945.26
2019-03-10T03:29:21.070Z,945.27
2019-03-10T03:30:21.113Z,945.27
2019-03-10T03:31:21.068Z,945.31
2019-03-10T03:32:42.048Z,945.25
2019-03-10T03:33:22.112Z,945.25
2019-03-10T03:34:21.048Z,945.22
2019-03-10T03:35:21.011Z,945.18
2019-03-10T03:36:21.026Z,945.08
2019-03-10T03:37:21.022Z,945.02
2019-03-10T03:38:42.003Z,945.00
2019-03-10T03:39:20.991Z,944.94
2019-03-10T03:40:21.003Z,944.93
2019-03-10T03:41:20.996Z,944.88
2019-03-10T03:42:20.979Z,944.84
2019-03-10T03:43:20.985Z,944.86
2019-03-10T03:44:41.977Z,944.83
2019-03-10T03:45:20.958Z,944.69
2019-03-10T03:46:20.947Z,944.70
2019-03-10T03:47:20.934Z,944.70
2019-03-10T03:48:20.985Z,944.68
2019-03-10T03:49:20.924Z,944.58
2019-03-10T03:50:41.925Z,944.65
2019-03-10T03:51:20.907Z,944.66
2019-03-10T03:52:20.922Z,944.69
2019-03-10T03:53:20.948Z,944.58
2019-03-10T03:54:20.886Z,944.53
2019-03-10T03:55:20.879Z,944.49
2019-03-10T03:56:41.878Z,944.47
2019-03-10T03:57:20.867Z,944.44
2019-03-10T03:58:20.860Z,944.44
2019-03-10T03:59:20.860Z,944.51
2019-03-10T04:00:20.846Z,944.34
2019-03-10T04:01:20.856Z,944.35
2019-03-10T04:02:41.824Z,944.40
2019-03-10T04:03:20.820Z,944.29
2019-03-10T04:04:20.814Z,944.22
2019-03-10T04:05:20.826Z,944.16
2019-03-10T04:06:20.869Z,944.18
2019-03-10T04:07:20.819Z,944.19
2019-03-10T04:08:41.786Z,944.20
2019-03-10T04:09:20.775Z,944.17
2019-03-10T04:10:20.776Z,944.14
2019-03-10T04:11:20.763Z,944.13
2019-03-10T04:12:20.756Z,944.16
2019-03-10T04:13:20.747Z,944.09
2019-03-10T04:14:41.747Z,944.14
2019-03-10T04:15:20.748Z,944.10
2019-03-10T04:16:20.728Z,944.08
2019-03-10T04:17:20.713Z,944.09
2019-03-10T04:18:20.713Z,944.08
2019-03-10T04:19:20.703Z,944.04
2019-03-10T04:20:41.698Z,944.05
2019-03-10T04:21:20.695Z,944.00
2019-03-10T04:22:20.673Z,943.94
2019-03-10T04:23:22.721Z,943.92
2019-03-10T04:24:20.664Z,943.84
2019-03-10T04:25:20.654Z,943.84
2019-03-10T04:26:41.657Z,943.85
2019-03-10T04:27:20.643Z,943.80
2019-03-10T04:28:20.635Z,943.76
2019-03-10T04:29:21.693Z,943.78
2019-03-10T04:30:20.613Z,943.79
2019-03-10T04:31:20.609Z,943.73
2019-03-10T04:32:41.620Z,943.71
2019-03-10T04:33:20.608Z,943.76
2019-03-10T04:34:20.593Z,943.64
2019-03-10T04:35:20.589Z,943.65
2019-03-10T04:36:20.576Z,943.62
2019-03-10T04:37:20.572Z,943.63
2019-03-10T04:38:41.574Z,943.58
2019-03-10T04:39:20.548Z,943.58
2019-03-10T04:40:20.553Z,943.58
2019-03-10T04:41:20.540Z,943.56
2019-03-10T04:42:20.529Z,943.53
2019-03-10T04:43:20.529Z,943.50
2019-03-10T04:44:41.522Z,943.56
2019-03-10T04:45:20.497Z,943.52
2019-03-10T04:46:20.499Z,943.49
2019-03-10T04:47:20.490Z,943.49
2019-03-10T04:48:20.495Z,943.50
2019-03-10T04:49:20.473Z,943.52
2019-03-10T04:50:41.488Z,943.50
2019-03-10T04:51:20.460Z,943.48
2019-03-10T04:52:20.445Z,943.48
2019-03-10T04:53:20.448Z,943.51
2019-03-10T04:54:20.434Z,943.51
2019-03-10T04:55:20.427Z,943.57
2019-03-10T04:56:41.431Z,943.55
2019-03-10T04:57:20.419Z,943.58
2019-03-10T04:58:20.418Z,943.57
2019-03-10T04:59:20.400Z,943.57
2019-03-10T05:00:20.413Z,943.61
2019-03-10T05:01:20.383Z,943.62
2019-03-10T05:02:41.393Z,943.55
2019-03-10T05:03:20.376Z,943.58
2019-03-10T05:04:20.357Z,943.61
2019-03-10T05:05:20.358Z,943.58
2019-03-10T05:06:20.352Z,943.61
2019-03-10T05:07:20.339Z,943.53
2019-03-10T05:08:41.340Z,943.56
2019-03-10T05:09:20.326Z,943.59
2019-03-10T05:10:20.319Z,943.58
2019-03-10T05:11:20.315Z,943.55
2019-03-10T05:12:20.300Z,943.54
2019-03-10T05:13:20.302Z,943.52
2019-03-10T05:14:41.298Z,943.46
2019-03-10T05:15:20.295Z,943.47
2019-03-10T05:16:20.303Z,943.48
2019-03-10T05:17:20.268Z,943.50
2019-03-10T05:18:20.267Z,943.41
2019-03-10T05:19:20.253Z,943.49
2019-03-10T05:20:41.254Z,943.32
2019-03-10T05:21:20.234Z,943.38
2019-03-10T05:22:20.233Z,943.39
2019-03-10T05:23:20.231Z,943.40
2019-03-10T05:24:20.211Z,943.44
2019-03-10T05:25:20.208Z,943.38
2019-03-10T05:26:41.203Z,943.37
2019-03-10T05:27:20.203Z,943.39
2019-03-10T05:28:20.179Z,943.23
2019-03-10T05:29:20.183Z,943.26
2019-03-10T05:30:20.185Z,943.37
2019-03-10T05:31:20.762Z,943.28
2019-03-10T05:32:41.166Z,943.16
2019-03-10T05:33:20.155Z,943.14
2019-03-10T05:34:20.141Z,943.13
2019-03-10T05:35:20.129Z,943.08
2019-03-10T05:36:20.131Z,943.08
2019-03-10T05:37:20.117Z,943.05
2019-03-10T05:38:41.116Z,943.14
2019-03-10T05:39:20.096Z,943.11
2019-03-10T05:40:20.093Z,943.07
2019-03-10T05:41:20.093Z,943.10
2019-03-10T05:42:20.093Z,943.12
2019-03-10T05:43:20.084Z,943.02
2019-03-10T05:44:41.075Z,943.07
2019-03-10T05:45:20.072Z,943.04
2019-03-10T05:46:20.056Z,943.05
2019-03-10T05:47:20.047Z,943.11
2019-03-10T05:48:20.042Z,943.00
2019-03-10T05:49:20.033Z,943.08
2019-03-10T05:50:41.035Z,943.01
2019-03-10T05:51:20.014Z,942.96
2019-03-10T05:52:20.011Z,943.04
2019-03-10T05:53:20.002Z,942.91
2019-03-10T05:54:19.993Z,942.90
2019-03-10T05:55:19.993Z,942.91
2019-03-10T05:56:40.991Z,942.96
2019-03-10T05:57:19.977Z,942.93
2019-03-10T05:58:19.965Z,942.88
2019-03-10T05:59:19.969Z,942.97
2019-03-10T06:00:19.957Z,942.83
2019-03-10T06:01:19.948Z,942.85
2019-03-10T06:02:40.946Z,942.90
2019-03-10T06:03:19.930Z,942.93
2019-03-10T06:04:19.919Z,942.83
2019-03-10T06:05:19.922Z,942.80
2019-03-10T06:06:19.918Z,942.83
2019-03-10T06:07:19.912Z,942.76
2019-03-10T06:08:40.908Z,942.73
2019-03-10T06:09:19.886Z,942.79
2019-03-10T06:10:19.883Z,942.75
2019-03-10T06:11:19.871Z,942.69
2019-03-10T06:12:19.865Z,942.68
2019-03-10T06:13:19.849Z,942.81
2019-03-10T06:14:40.853Z,942.78
2019-03-10T06:15:19.840Z,942.82
2019-03-10T06:16:19.835Z,942.83
2019-03-10T06:17:21.537Z,942.76
2019-03-10T06:18:19.821Z,942.82
2019-03-10T06:19:19.813Z,942.82
2019-03-10T06:20:40.812Z,942.82
2019-03-10T06:21:19.803Z,942.83
2019-03-10T06:22:19.799Z,942.79
2019-03-10T06:23:19.793Z,942.74
2019-03-10T06:24:19.778Z,942.71
2019-03-10T06:25:19.783Z,942.77
2019-03-10T06:26:40.770Z,942.80
2019-03-10T06:27:19.762Z,942.76
2019-03-10T06:28:19.751Z,942.75
2019-03-10T06:29:19.744Z,942.70
2019-03-10T06:30:19.735Z,942.66
2019-03-10T06:31:19.738Z,942.75
2019-03-10T06:32:40.733Z,942.63
2019-03-10T06:33:19.721Z,942.66
2019-03-10T06:34:19.704Z,942.64
2019-03-10T06:35:19.692Z,942.54
2019-03-10T06:36:19.702Z,942.55
2019-03-10T06:37:19.682Z,942.58
2019-03-10T06:38:40.684Z,942.49
2019-03-10T06:39:20.265Z,942.42
2019-03-10T06:40:19.670Z,942.48
2019-03-10T06:41:19.660Z,942.55
2019-03-10T06:42:19.649Z,942.50
2019-03-10T06:43:19.644Z,942.40
2019-03-10T06:44:40.646Z,942.41
2019-03-10T06:45:19.623Z,942.40
2019-03-10T06:46:19.620Z,942.38
2019-03-10T06:47:19.615Z,942.41
2019-03-10T06:48:19.598Z,942.38
2019-03-10T06:49:19.596Z,942.35
2019-03-10T06:50:40.601Z,942.36
2019-03-10T06:51:19.589Z,942.35
2019-03-10T06:52:19.580Z,942.24
2019-03-10T06:53:19.566Z,942.25
2019-03-10T06:54:19.571Z,942.27
2019-03-10T06:55:19.552Z,942.25
2019-03-10T06:56:40.558Z,942.28
2019-03-10T06:57:19.557Z,942.31
2019-03-10T06:58:19.540Z,942.27
2019-03-10T06:59:19.536Z,942.30
2019-03-10T07:00:19.522Z,942.15
2019-03-10T07:01:19.526Z,942.19
2019-03-10T07:02:40.525Z,942.28
2019-03-10T07:03:19.504Z,942.16
2019-03-10T07:04:19.496Z,942.26
2019-03-10T07:05:19.486Z,942.18
2019-03-10T07:06:19.491Z,942.06
2019-03-10T07:07:19.478Z,942.12
2019-03-10T07:08:40.485Z,942.14
2019-03-10T07:09:19.459Z,942.10
2019-03-10T07:10:19.460Z,942.13
2019-03-10T07:11:19.450Z,942.09
2019-03-10T07:12:19.438Z,942.08
2019-03-10T07:13:19.444Z,942.04
2019-03-10T07:14:40.436Z,942.00
2019-03-10T07:15:19.432Z,942.07
2019-03-10T07:16:19.417Z,942.05
2019-03-10T07:17:19.406Z,942.07
2019-03-10T07:18:19.397Z,942.10
2019-03-10T07:19:19.396Z,942.06
2019-03-10T07:20:40.394Z,942.09
2019-03-10T07:21:19.388Z,942.04
2019-03-10T07:22:19.379Z,941.96
2019-03-10T07:23:19.370Z,942.01
2019-03-10T07:24:19.363Z,941.96
2019-03-10T07:25:19.367Z,942.08
2019-03-10T07:26:41.298Z,942.04
2019-03-10T07:27:19.348Z,942.02
2019-03-10T07:28:19.347Z,942.08
2019-03-10T07:29:19.332Z,942.00
2019-03-10T07:30:19.325Z,941.87
2019-03-10T07:31:19.315Z,942.01
2019-03-10T07:32:40.324Z,942.05
2019-03-10T07:33:19.306Z,942.01
2019-03-10T07:34:19.292Z,941.99
2019-03-10T07:35:19.294Z,942.12
2019-03-10T07:36:19.290Z,941.98
2019-03-10T07:37:19.278Z,941.94
2019-03-10T07:38:40.279Z,942.01
2019-03-10T07:39:19.269Z,942.00
2019-03-10T07:40:19.256Z,942.05
2019-03-10T07:41:19.258Z,942.09
2019-03-10T07:42:19.249Z,942.01
2019-03-10T07:43:19.255Z,941.89
2019-03-10T07:44:41.703Z,942.07
2019-03-10T07:45:19.237Z,942.15
2019-03-10T07:46:19.231Z,942.12
2019-03-10T07:47:19.223Z,942.17
2019-03-10T07:48:19.214Z,942.21
2019-03-10T07:49:19.209Z,942.22
2019-03-10T07:50:40.215Z,942.12
2019-03-10T07:51:19.205Z,942.29
2019-03-10T07:52:20.475Z,942.19
2019-03-10T07:53:19.180Z,942.13
2019-03-10T07:54:19.178Z,942.05
2019-03-10T07:55:19.176Z,942.07
2019-03-10T07:56:40.186Z,942.07
2019-03-10T07:57:19.160Z,942.05
2019-03-10T07:58:19.159Z,942.11
2019-03-10T07:59:19.152Z,942.15
2019-03-10T08:00:19.140Z,942.17
2019-03-10T08:01:19.143Z,942.11
2019-03-10T08:02:40.138Z,942.16
2019-03-10T08:03:19.129Z,942.17
2019-03-10T08:04:19.125Z,942.05
2019-03-10T08:05:19.117Z,942.26
2019-03-10T08:06:19.105Z,942.19
2019-03-10T08:07:19.103Z,942.26
2019-03-10T08:08:40.103Z,942.31
2019-03-10T08:09:19.094Z,942.16
2019-03-10T08:10:19.071Z,942.20
2019-03-10T08:11:19.079Z,942.28
2019-03-10T08:12:19.082Z,942.28
2019-03-10T08:13:19.069Z,942.23
2019-03-10T08:14:40.061Z,942.25
2019-03-10T08:15:19.063Z,942.24
2019-03-10T08:16:19.051Z,942.26
2019-03-10T08:17:19.044Z,942.25
2019-03-10T08:18:19.041Z,942.36
2019-03-10T08:19:19.041Z,942.27
2019-03-10T08:20:40.040Z,942.27
2019-03-10T08:21:19.023Z,942.20
2019-03-10T08:22:19.018Z,942.22
2019-03-10T08:23:19.008Z,942.15
2019-03-10T08:24:19.004Z,942.15
2019-03-10T08:25:19.004Z,942.27
2019-03-10T08:26:39.995Z,942.25
2019-03-10T08:27:18.980Z,942.30
2019-03-10T08:28:20.329Z,942.33
2019-03-10T08:29:18.976Z,942.35
2019-03-10T08:30:18.967Z,942.31
2019-03-10T08:31:18.966Z,942.37
2019-03-10T08:32:39.972Z,942.25
2019-03-10T08:33:18.947Z,942.19
2019-03-10T08:34:18.953Z,942.34
2019-03-10T08:35:19.223Z,942.21
2019-03-10T08:36:18.940Z,942.36
2019-03-10T08:37:18.927Z,942.33
2019-03-10T08:38:39.936Z,942.28
2019-03-10T08:39:18.924Z,942.41
2019-03-10T08:40:18.908Z,942.28
2019-03-10T08:41:18.913Z,942.34
2019-03-10T08:42:20.604Z,942.24
2019-03-10T08:43:18.895Z,942.28
2019-03-10T08:44:39.885Z,942.33
2019-03-10T08:45:18.879Z,942.35
2019-03-10T08:46:18.881Z,942.23
2019-03-10T08:47:18.874Z,942.40
2019-03-10T08:48:18.859Z,942.42
2019-03-10T08:49:18.857Z,942.41
2019-03-10T08:50:39.866Z,942.35
2019-03-10T08:51:18.844Z,942.46
2019-03-10T08:52:18.837Z,942.36
2019-03-10T08:53:18.828Z,942.35
2019-03-10T08:54:18.830Z,942.37
2019-03-10T08:55:18.826Z,942.39
2019-03-10T08:56:39.820Z,942.16
2019-03-10T08:57:18.807Z,942.38
2019-03-10T08:58:18.830Z,942.37
2019-03-10T08:59:18.793Z,942.34
2019-03-10T09:00:19.862Z,942.33
2019-03-10T09:01:18.821Z,942.31
2019-03-10T09:02:39.859Z,942.27
2019-03-10T09:03:19.039Z,942.35
2019-03-10T09:04:18.777Z,942.21
2019-03-10T09:05:18.760Z,942.33
2019-03-10T09:06:18.757Z,942.39
2019-03-10T09:07:19.336Z,942.36
2019-03-10T09:08:39.748Z,942.38
2019-03-10T09:09:18.880Z,942.43
2019-03-10T09:10:18.767Z,942.43
2019-03-10T09:11:18.724Z,942.45
2019-03-10T09:12:18.796Z,942.40
2019-03-10T09:13:18.700Z,942.32
2019-03-10T09:14:39.707Z,942.34
2019-03-10T09:15:18.696Z,942.45
2019-03-10T09:16:18.691Z,942.39
2019-03-10T09:17:18.686Z,942.29
2019-03-10T09:18:18.675Z,942.29
2019-03-10T09:19:18.670Z,942.29
2019-03-10T09:20:39.674Z,942.19
2019-03-10T09:21:18.661Z,942.30
2019-03-10T09:22:18.661Z,942.24
2019-03-10T09:23:18.662Z,942.24
2019-03-10T09:24:18.645Z,942.21
2019-03-10T09:25:18.638Z,942.23
2019-03-10T09:26:39.646Z,942.18
2019-03-10T09:27:18.620Z,942.11
2019-03-10T09:28:18.631Z,942.16
2019-03-10T09:29:18.610Z,942.13
2019-03-10T09:30:18.611Z,941.99
2019-03-10T09:31:18.610Z,942.11
2019-03-10T09:32:39.608Z,942.05
2019-03-10T09:33:18.597Z,941.96
2019-03-10T09:34:18.650Z,942.02
2019-03-10T09:35:18.575Z,942.08
2019-03-10T09:36:18.581Z,942.06
2019-03-10T09:37:18.568Z,942.05
2019-03-10T09:38:39.571Z,941.90
2019-03-10T09:39:18.582Z,941.93
2019-03-10T09:40:18.552Z,941.84
2019-03-10T09:41:19.423Z,941.95
2019-03-10T09:42:19.889Z,941.88
2019-03-10T09:43:18.530Z,941.86
2019-03-10T09:44:39.548Z,941.85
2019-03-10T09:45:18.522Z,941.90
2019-03-10T09:46:18.527Z,941.79
2019-03-10T09:47:18.515Z,941.80
2019-03-10T09:48:18.514Z,941.75
2019-03-10T09:49:18.498Z,941.77
2019-03-10T09:50:39.505Z,941.63
2019-03-10T09:51:18.485Z,941.62
2019-03-10T09:52:18.482Z,941.63
2019-03-10T09:53:18.479Z,941.66
2019-03-10T09:54:18.468Z,941.52
2019-03-10T09:55:18.466Z,941.43
2019-03-10T09:56:39.460Z,941.52
2019-03-10T09:57:18.450Z,941.53
2019-03-10T09:58:18.441Z,941.54
2019-03-10T09:59:18.437Z,941.53
2019-03-10T10:00:18.432Z,941.53
2019-03-10T10:01:18.421Z,941.28
2019-03-10T10:02:39.432Z,941.49
2019-03-10T10:03:18.421Z,941.50
2019-03-10T10:04:18.405Z,941.55
2019-03-10T10:05:18.548Z,941.54
2019-03-10T10:06:18.402Z,941.51
2019-03-10T10:07:18.397Z,941.60
2019-03-10T10:08:39.392Z,941.50
2019-03-10T10:09:18.390Z,941.46
2019-03-10T10:10:18.375Z,941.54
2019-03-10T10:11:18.373Z,941.44
2019-03-10T10:12:18.357Z,941.52
2019-03-10T10:13:18.380Z,941.44
2019-03-10T10:14:39.362Z,941.46
2019-03-10T10:15:18.344Z,941.56
2019-03-10T10:16:18.341Z,941.51
2019-03-10T10:17:18.336Z,941.51
2019-03-10T10:18:18.830Z,941.47
2019-03-10T10:19:18.335Z,941.51
2019-03-10T10:20:39.331Z,941.46
2019-03-10T10:21:18.318Z,941.39
2019-03-10T10:22:18.314Z,941.41
2019-03-10T10:23:18.297Z,941.53
2019-03-10T10:24:18.308Z,941.48
2019-03-10T10:25:18.298Z,941.51
2019-03-10T10:26:39.296Z,941.52
2019-03-10T10:27:20.102Z,941.41
2019-03-10T10:28:18.279Z,941.48
2019-03-10T10:29:18.269Z,941.50
2019-03-10T10:30:18.262Z,941.51
2019-03-10T10:31:18.272Z,941.53
2019-03-10T10:32:39.269Z,941.64
2019-03-10T10:33:18.247Z,941.67
2019-03-10T10:34:18.240Z,941.60
2019-03-10T10:35:18.244Z,941.63
2019-03-10T10:36:18.230Z,941.64
2019-03-10T10:37:18.237Z,941.53
2019-03-10T10:38:39.234Z,941.52
2019-03-10T10:39:18.227Z,941.59
2019-03-10T10:40:18.222Z,941.64
2019-03-10T10:41:18.207Z,941.55
2019-03-10T10:42:18.196Z,941.64
2019-03-10T10:43:18.207Z,941.59
2019-03-10T10:44:39.209Z,941.51
2019-03-10T10:45:18.188Z,941.51
2019-03-10T10:46:18.184Z,941.49
2019-03-10T10:47:18.182Z,941.39
2019-03-10T10:48:18.173Z,941.45
2019-03-10T10:49:18.187Z,941.26
2019-03-10T10:50:39.167Z,941.27
2019-03-10T10:51:18.168Z,941.28
2019-03-10T10:52:18.158Z,941.26
2019-03-10T10:53:21.299Z,941.27
2019-03-10T10:54:18.816Z,941.23
2019-03-10T10:55:18.132Z,941.21
2019-03-10T10:56:39.145Z,941.20
2019-03-10T10:57:18.125Z,941.30
2019-03-10T10:58:18.307Z,941.25
2019-03-10T10:59:18.114Z,941.23
2019-03-10T11:00:18.103Z,941.16
2019-03-10T11:01:18.109Z,941.15
2019-03-10T11:02:39.100Z,941.07
2019-03-10T11:03:18.094Z,941.16
2019-03-10T11:04:18.092Z,941.21
2019-03-10T11:05:18.085Z,941.21
2019-03-10T11:06:19.815Z,941.13
2019-03-10T11:07:18.073Z,941.19
2019-03-10T11:08:39.075Z,941.25
2019-03-10T11:09:18.062Z,941.17
2019-03-10T11:10:18.050Z,941.17
2019-03-10T11:11:18.064Z,941.06
2019-03-10T11:12:18.041Z,941.12
2019-03-10T11:13:18.045Z,941.20
2019-03-10T11:14:39.056Z,941.28
2019-03-10T11:15:18.028Z,941.31
2019-03-10T11:16:18.029Z,941.24
2019-03-10T11:17:18.031Z,941.33
2019-03-10T11:18:18.014Z,941.33
2019-03-10T11:19:17.999Z,941.27
2019-03-10T11:20:39.011Z,941.38
2019-03-10T11:21:18.004Z,941.37
2019-03-10T11:22:17.997Z,941.25
2019-03-10T11:23:17.990Z,941.27
2019-03-10T11:24:17.982Z,941.13
2019-03-10T11:25:17.978Z,941.23
2019-03-10T11:26:39.919Z,941.23
2019-03-10T11:27:18.824Z,941.09
2019-03-10T11:28:17.967Z,941.20
2019-03-10T11:29:17.963Z,941.23
2019-03-10T11:30:17.959Z,941.28
2019-03-10T11:31:17.944Z,941.18
2019-03-10T11:32:38.953Z,941.21
2019-03-10T11:33:17.938Z,941.20
2019-03-10T11:34:17.925Z,941.16
2019-03-10T11:35:17.925Z,941.26
2019-03-10T11:36:17.923Z,941.20
2019-03-10T11:37:17.908Z,941.13
2019-03-10T11:38:38.921Z,941.26
2019-03-10T11:39:17.908Z,941.21
2019-03-10T11:40:17.894Z,941.13
2019-03-10T11:41:17.887Z,941.25
2019-03-10T11:42:17.890Z,941.31
2019-03-10T11:43:17.881Z,941.28
2019-03-10T11:44:38.890Z,941.32
2019-03-10T11:45:17.877Z,941.35
2019-03-10T11:46:17.871Z,941.27
2019-03-10T11:47:17.860Z,941.21
2019-03-10T11:48:17.854Z,941.15
2019-03-10T11:49:17.841Z,941.31
2019-03-10T11:50:38.845Z,941.23
2019-03-10T11:51:17.837Z,941.27
2019-03-10T11:52:17.833Z,941.31
2019-03-10T11:53:19.358Z,941.25
2019-03-10T11:54:17.819Z,941.17
2019-03-10T11:55:17.904Z,941.18
2019-03-10T11:56:41.910Z,941.17
2019-03-10T11:57:17.798Z,941.09
2019-03-10T11:58:17.795Z,940.99
2019-03-10T11:59:17.807Z,941.05
2019-03-10T12:00:17.794Z,941.18
2019-03-10T12:01:17.780Z,941.10
2019-03-10T12:02:38.784Z,941.19
2019-03-10T12:03:17.778Z,941.21
2019-03-10T12:04:17.769Z,941.28
2019-03-10T12:05:17.775Z,941.10
2019-03-10T12:06:17.761Z,941.06
2019-03-10T12:07:17.751Z,941.13
2019-03-10T12:08:38.767Z,941.20
2019-03-10T12:09:17.750Z,941.06
2019-03-10T12:10:17.752Z,941.17
2019-03-10T12:11:17.738Z,941.24
2019-03-10T12:12:17.735Z,941.22
2019-03-10T12:13:17.740Z,941.22
2019-03-10T12:14:38.743Z,941.20
2019-03-10T12:15:17.723Z,941.32
2019-03-10T12:16:17.717Z,941.21
2019-03-10T12:17:17.723Z,941.14
2019-03-10T12:18:17.712Z,941.33
2019-03-10T12:19:17.700Z,941.22
2019-03-10T12:20:38.714Z,941.16
2019-03-10T12:21:17.688Z,941.11
2019-03-10T12:22:17.695Z,941.20
2019-03-10T12:23:17.683Z,941.18
2019-03-10T12:24:17.685Z,941.12
2019-03-10T12:25:17.678Z,940.93
2019-03-10T12:26:38.683Z,941.03
2019-03-10T12:27:17.665Z,941.08
2019-03-10T12:28:17.671Z,941.06